Gaspar Campos, Argentina
Current Conditions -  °F | °C
As of 5:00 PM on Saturday 20 Dec 2014 (Local Time) from SAME Reporting Station
Broken Clouds Broken Clouds  
Wind Chill: 75°   Ceiling: 5000
Heat Index: 75°   Visibility: 6mi
Dew Point: 41°   Wind: 9mph
Humidity: 29%   Direction: 110°ESE
Pressure: 29.65"   Gusts: NA
Location:  34.63°S, 67.69°W
Report Text: SAME 202000Z 11008KT 9999 FEW045 BKN050 24/05 Q1004
Loading
Personal Weather Stations






























Interactive Weather Map New forecast layout! Learn more

10-Day Weather Forecast

Advertisements
Track Severe Weather on mobile